Sedan, Kansas
Current Conditions -  °F | °C
As of 5:35 AM on Friday 31 Oct 2014 (Local Time) from KIDP Reporting Station
Clear Clear  
Wind Chill: 38°   Ceiling: Unl
Heat Index: 45°   Visibility: 10mi
Dew Point: 39°   Wind: 15mph
Humidity: 81%   Direction: 350°N
Pressure: 30.32"   Gusts: NA
Location:  37.13°N, 96.19°W
Report Text: KIDP 311035Z AUTO 35013KT 10SM CLR 07/04 A3032 RMK AO2
Loading
Personal Weather Stations






























Interactive Weather Map
Tropical Storm Tracking
New forecast layout! Learn more

10-Day Weather Forecast

Advertisements
Track Severe Weather on mobile